Time;durP1;ratioP1;P1;durP2;ratioP2;P2;SDS_P1;SDS_P2;PMS_P1;PMS_P2;Temp;Humidity;BMP_temperature;BMP_pressure;BME280_temperature;BME280_humidity;BME280_pressure;Samples;Min_cycle;Max_cycle;Signal;HPM_P1;HPM_P2
2021/09/05 00:02:26;;;;;;;47.78;36.60;;;;;;;16.12;77.88;101611.78;5053797;28;20045;-87
2021/09/05 00:04:54;;;;;;;52.92;39.58;;;;;;;16.07;78.04;101605.88;5055528;28;20041;-85
2021/09/05 00:07:23;;;;;;;50.17;37.90;;;;;;;15.99;78.00;101601.00;5051300;28;20179;-86
2021/09/05 00:09:53;;;;;;;56.25;37.58;;;;;;;15.78;78.24;101573.84;5053260;28;20049;-86
2021/09/05 00:12:27;;;;;;;47.90;36.55;;;;;;;15.99;77.88;101611.53;5067078;28;20056;-86
2021/09/05 00:15:01;;;;;;;55.15;38.97;;;;;;;15.82;78.10;101595.63;5056377;28;20044;-85
2021/09/05 00:17:38;;;;;;;52.22;38.35;;;;;;;15.50;78.01;101548.78;5054631;28;20049;-86
2021/09/05 00:20:17;;;;;;;54.67;40.55;;;;;;;15.83;78.69;101616.66;5035084;28;20056;-85
2021/09/05 00:22:51;;;;;;;53.67;38.38;;;;;;;15.79;78.82;101614.19;5035619;28;20067;-85
2021/09/05 00:25:26;;;;;;;52.60;37.38;;;;;;;15.55;78.94;101574.91;5054336;28;20045;-86
2021/09/05 00:27:57;;;;;;;49.10;37.33;;;;;;;15.73;78.86;101620.56;5054044;28;20052;-86
2021/09/05 00:30:37;;;;;;;50.53;36.28;;;;;;;15.47;78.81;101582.28;5054711;28;20485;-85
2021/09/05 00:33:13;;;;;;;47.50;36.10;;;;;;;15.65;78.73;101615.66;5054915;28;20052;-86
2021/09/05 00:35:50;;;;;;;50.25;35.35;;;;;;;15.65;78.98;101615.66;5060617;28;20069;-86
2021/09/05 00:38:22;;;;;;;50.22;36.60;;;;;;;15.50;78.99;101583.00;5061930;28;20049;-86
2021/09/05 00:41:01;;;;;;;50.90;36.63;;;;;;;15.61;79.11;101611.47;5054006;28;20378;-86
2021/09/05 00:43:57;;;;;;;48.67;35.92;;;;;;;15.54;79.28;101602.13;5053614;28;20045;-86
2021/09/05 00:46:31;;;;;;;47.42;34.63;;;;;;;15.38;79.65;101586.19;5054557;28;20053;-86
2021/09/05 00:49:02;;;;;;;50.25;35.33;;;;;;;15.33;79.55;101578.50;5054249;28;20094;-86
2021/09/05 00:51:39;;;;;;;46.22;36.00;;;;;;;15.43;79.78;101599.97;5034759;28;20056;-85
2021/09/05 00:54:14;;;;;;;48.92;34.45;;;;;;;15.40;79.75;101604.53;5046439;28;20075;-85
2021/09/05 00:56:49;;;;;;;49.47;36.40;;;;;;;15.27;79.98;101588.41;5054133;28;20519;-85
2021/09/05 00:59:22;;;;;;;52.65;35.97;;;;;;;15.17;79.95;101575.69;5053340;28;20516;-85
2021/09/05 01:01:56;;;;;;;54.88;36.00;;;;;;;15.37;80.13;101603.72;5054125;28;20073;-86
2021/09/05 01:04:31;;;;;;;54.38;39.42;;;;;;;15.36;80.11;101602.00;5052781;28;20045;-85
2021/09/05 01:07:08;;;;;;;64.78;44.78;;;;;;;15.36;80.14;101611.69;5050900;28;20044;-85
2021/09/05 01:09:36;;;;;;;53.67;39.35;;;;;;;15.27;80.09;101591.03;5053199;28;20512;-86
2021/09/05 01:12:03;;;;;;;57.45;39.35;;;;;;;15.09;79.97;101564.63;5053827;28;20044;-86
2021/09/05 01:14:31;;;;;;;51.58;36.83;;;;;;;15.22;80.28;101591.22;5053832;28;20156;-86
2021/09/05 01:17:00;;;;;;;48.65;36.15;;;;;;;15.24;80.44;101606.97;5052618;28;20077;-86
2021/09/05 01:19:27;;;;;;;49.95;36.83;;;;;;;14.97;80.28;101563.38;5054433;28;20040;-86
2021/09/05 01:21:53;;;;;;;47.40;33.13;;;;;;;15.00;80.42;101578.16;5053827;28;20052;-86
2021/09/05 01:24:21;;;;;;;48.53;34.85;;;;;;;15.12;80.39;101603.94;5054484;28;20064;-86
2021/09/05 01:26:50;;;;;;;48.63;34.70;;;;;;;15.05;80.70;101592.00;5054501;28;20049;-87
2021/09/05 01:29:17;;;;;;;43.70;32.13;;;;;;;14.95;80.81;101578.38;5062938;28;20129;-85
2021/09/05 01:31:49;;;;;;;49.70;35.75;;;;;;;15.04;80.84;101599.00;5067178;28;20049;-85
2021/09/05 01:34:19;;;;;;;54.78;36.92;;;;;;;14.88;81.19;101576.94;5073368;28;20049;-85
2021/09/05 01:36:46;;;;;;;54.45;36.50;;;;;;;14.92;81.41;101599.53;5081907;28;20040;-84
2021/09/05 01:39:14;;;;;;;51.25;37.03;;;;;;;14.78;81.34;101580.84;5084171;28;20080;-84
2021/09/05 01:41:41;;;;;;;48.65;33.22;;;;;;;14.50;81.41;101540.78;5078503;28;20044;-84
2021/09/05 01:44:17;;;;;;;46.95;35.92;;;;;;;14.86;81.47;101605.03;5078636;28;20124;-85
2021/09/05 01:46:43;;;;;;;43.85;31.58;;;;;;;14.48;81.31;101553.13;5077673;28;20569;-86
2021/09/05 01:49:10;;;;;;;47.33;36.10;;;;;;;14.76;81.75;101612.47;5068582;28;20053;-86
2021/09/05 01:51:36;;;;;;;46.15;32.88;;;;;;;14.40;81.77;101549.94;5078807;28;20067;-86
2021/09/05 01:54:03;;;;;;;52.38;35.58;;;;;;;14.77;81.48;101608.91;5077723;28;20052;-87
2021/09/05 01:56:31;;;;;;;45.22;32.17;;;;;;;14.70;81.78;101617.97;5075057;28;20071;-90
2021/09/05 01:58:59;;;;;;;50.47;35.80;;;;;;;14.63;81.87;101612.06;5073164;28;20045;-90
2021/09/05 02:01:29;;;;;;;45.47;32.67;;;;;;;14.69;81.82;101614.47;5065688;28;20051;-91
2021/09/05 02:03:56;;;;;;;49.20;32.67;;;;;;;14.44;81.80;101576.94;5045946;28;20045;-92
2021/09/05 02:06:22;;;;;;;49.03;33.70;;;;;;;14.65;81.87;101622.53;5063560;28;20045;-90
2021/09/05 02:08:48;;;;;;;43.72;32.45;;;;;;;14.62;81.91;101620.84;5064144;28;20110;-89
2021/09/05 02:11:15;;;;;;;46.78;33.63;;;;;;;14.52;81.97;101614.28;5076319;28;20064;-85
2021/09/05 02:13:42;;;;;;;51.55;35.33;;;;;;;14.45;81.97;101605.75;5059417;28;20466;-89
2021/09/05 02:16:08;;;;;;;48.00;35.33;;;;;;;14.49;82.43;101622.25;5063729;28;20037;-86
2021/09/05 02:18:37;;;;;;;41.75;30.67;;;;;;;14.34;82.18;101589.59;5061337;28;20548;-87
2021/09/05 02:21:03;;;;;;;46.80;32.55;;;;;;;14.43;82.17;101604.13;5048882;28;20041;-87
2021/09/05 02:23:32;;;;;;;48.42;35.30;;;;;;;14.28;81.91;101576.69;5059872;28;20045;-87
2021/09/05 02:25:58;;;;;;;48.58;34.20;;;;;;;14.44;82.48;101635.59;5059308;28;20045;-88
2021/09/05 02:28:25;;;;;;;50.60;33.35;;;;;;;14.41;82.54;101630.47;5055622;28;20135;-86
2021/09/05 02:30:51;;;;;;;46.95;34.45;;;;;;;14.11;82.25;101580.88;5059849;28;20045;-87
2021/09/05 02:33:17;;;;;;;48.03;34.85;;;;;;;14.17;82.23;101590.25;5059105;28;20045;-86
2021/09/05 02:35:44;;;;;;;44.00;32.72;;;;;;;14.33;82.13;101609.75;5059619;28;20405;-87
2021/09/05 02:38:10;;;;;;;46.28;33.53;;;;;;;14.40;82.31;101627.00;5059655;28;20045;-86
2021/09/05 02:40:36;;;;;;;46.17;31.60;;;;;;;14.14;82.42;101579.88;5059830;28;20401;-91
2021/09/05 02:43:04;;;;;;;46.97;33.97;;;;;;;14.41;82.57;101623.44;5058703;28;20458;-90
2021/09/05 02:45:31;;;;;;;47.20;33.83;;;;;;;14.43;82.54;101636.50;5055375;28;20106;-89
2021/09/05 02:48:00;;;;;;;47.95;35.05;;;;;;;14.44;82.45;101632.97;5056137;28;20041;-87
2021/09/05 02:50:27;;;;;;;49.60;32.85;;;;;;;14.28;82.49;101608.22;5057112;28;20113;-89
2021/09/05 02:52:58;;;;;;;47.30;33.45;;;;;;;14.38;82.44;101628.81;5048299;28;20104;-88
2021/09/05 02:55:34;;;;;;;48.42;33.38;;;;;;;14.33;82.28;101619.38;5036976;28;20042;-89
2021/09/05 02:58:09;;;;;;;48.25;33.83;;;;;;;14.32;82.42;101620.31;5056139;28;20051;-89
2021/09/05 03:00:42;;;;;;;42.50;31.38;;;;;;;14.34;82.73;101631.59;5055533;28;20045;-86
2021/09/05 03:03:11;;;;;;;50.80;34.95;;;;;;;14.14;82.76;101593.00;5055412;28;20049;-89
2021/09/05 03:05:46;;;;;;;49.30;34.10;;;;;;;13.98;82.80;101563.88;5055789;28;20049;-86
2021/09/05 03:08:21;;;;;;;46.58;34.05;;;;;;;14.16;82.94;101599.91;5055219;28;20536;-86
2021/09/05 03:10:52;;;;;;;55.88;36.13;;;;;;;14.05;82.94;101588.97;5056323;28;20489;-88
2021/09/05 03:13:32;;;;;;;46.35;31.75;;;;;;;14.21;83.21;101613.72;5054821;28;20493;-87
2021/09/05 03:16:07;;;;;;;57.20;33.33;;;;;;;14.17;83.14;101601.63;5055842;28;20132;-85
2021/09/05 03:18:42;;;;;;;46.78;31.73;;;;;;;13.86;83.07;101555.53;5055369;28;20046;-85
2021/09/05 03:21:12;;;;;;;51.30;32.17;;;;;;;14.18;83.29;101615.59;5056016;28;20413;-85
2021/09/05 03:23:46;;;;;;;47.58;33.30;;;;;;;14.05;83.01;101588.97;5054898;28;20120;-85
2021/09/05 03:26:20;;;;;;;51.63;32.80;;;;;;;13.93;83.17;101574.53;5049665;28;20045;-86
2021/09/05 03:29:03;;;;;;;50.75;33.45;;;;;;;14.09;83.17;101604.53;5055209;28;20056;-88
2021/09/05 03:31:35;;;;;;;49.80;35.00;;;;;;;13.98;83.38;101595.38;5055936;28;20130;-90
2021/09/05 03:34:05;;;;;;;47.50;32.85;;;;;;;13.96;83.47;101581.44;5055960;28;20052;-87
2021/09/05 03:36:40;;;;;;;52.45;33.40;;;;;;;13.85;83.61;101573.97;5038223;28;20069;-86
2021/09/05 03:39:12;;;;;;;50.95;35.50;;;;;;;13.63;83.58;101540.66;5055305;28;20411;-89
2021/09/05 03:41:45;;;;;;;48.63;32.42;;;;;;;13.90;83.95;101604.41;5055571;28;20041;-86
2021/09/05 03:44:16;;;;;;;50.95;33.15;;;;;;;13.53;83.71;101544.56;5056035;28;20045;-87
2021/09/05 03:46:47;;;;;;;44.92;31.77;;;;;;;13.72;83.70;101568.31;5062622;28;20049;-83
2021/09/05 03:49:18;;;;;;;40.40;31.05;;;;;;;13.70;83.76;101567.53;5064834;28;20438;-84
2021/09/05 03:51:53;;;;;;;45.63;32.28;;;;;;;13.89;83.76;101614.94;5047234;28;20029;-82
2021/09/05 03:54:24;;;;;;;42.92;31.00;;;;;;;13.87;83.31;101593.16;5075312;28;20072;-83
2021/09/05 03:56:58;;;;;;;46.53;31.52;;;;;;;13.91;83.39;101603.47;5061568;28;20041;-83
2021/09/05 03:59:29;;;;;;;47.83;32.78;;;;;;;13.86;83.41;101609.81;5074188;28;20049;-84
2021/09/05 04:01:57;;;;;;;48.33;31.88;;;;;;;13.81;83.82;101609.13;5075380;28;20064;-85
2021/09/05 04:04:23;;;;;;;42.28;29.75;;;;;;;13.71;83.49;101582.38;5064967;28;20045;-89
2021/09/05 04:07:00;;;;;;;40.17;28.35;;;;;;;13.71;83.27;101579.75;5056286;28;20049;-91
2021/09/05 04:12:17;;;;;;;39.50;27.95;;;;;;;13.76;82.91;101586.53;5055147;28;20055;-90
2021/09/05 04:14:44;;;;;;;39.95;27.23;;;;;;;13.32;82.85;101520.78;5055094;28;20076;-90
2021/09/05 04:17:13;;;;;;;35.13;26.50;;;;;;;13.95;82.63;101622.56;5055130;28;20071;-89
2021/09/05 04:19:39;;;;;;;42.83;26.95;;;;;;;13.73;82.39;101583.16;5054067;28;20114;-85
2021/09/05 04:22:11;;;;;;;39.20;27.33;;;;;;;13.86;82.72;101621.16;5055557;28;20049;-84
2021/09/05 04:24:43;;;;;;;36.42;26.67;;;;;;;13.62;83.16;101588.78;5052887;28;20072;-85
2021/09/05 04:27:14;;;;;;;39.10;26.98;;;;;;;13.55;83.22;101598.66;5043341;28;20088;-89
2021/09/05 04:29:42;;;;;;;36.55;26.85;;;;;;;13.64;82.91;101601.88;5053788;28;20421;-89
2021/09/05 04:32:08;;;;;;;37.17;25.63;;;;;;;13.66;82.65;101590.41;5055092;28;20044;-90
2021/09/05 04:34:35;;;;;;;40.58;27.25;;;;;;;13.91;82.36;101629.72;5056977;28;20052;-87
2021/09/05 04:37:02;;;;;;;36.88;26.33;;;;;;;13.53;82.38;101574.25;5055062;28;20041;-85
2021/09/05 04:39:29;;;;;;;39.20;26.00;;;;;;;13.60;82.72;101586.22;5055073;28;20044;-85
2021/09/05 04:41:55;;;;;;;38.28;25.92;;;;;;;13.55;83.26;101609.16;5054884;28;20048;-86
2021/09/05 04:44:30;;;;;;;42.28;27.00;;;;;;;13.68;83.26;101629.69;5054479;28;20412;-86
2021/09/05 04:46:59;;;;;;;36.00;25.77;;;;;;;13.67;83.32;101631.47;5055325;28;20432;-89
2021/09/05 04:49:25;;;;;;;31.08;22.65;;;;;;;13.71;83.13;101626.97;5054560;28;20053;-86
2021/09/05 04:51:53;;;;;;;36.72;25.60;;;;;;;13.68;82.88;101621.84;5053701;28;20495;-89
2021/09/05 04:54:27;;;;;;;37.40;26.15;;;;;;;13.66;83.03;101626.28;5051781;28;20524;-89
2021/09/05 04:57:03;;;;;;;35.88;23.70;;;;;;;13.57;82.75;101615.22;5038638;28;20481;-87
2021/09/05 04:59:34;;;;;;;30.20;22.27;;;;;;;13.57;82.79;101614.34;5047675;28;20045;-86
2021/09/05 05:02:07;;;;;;;33.15;22.52;;;;;;;13.49;82.91;101608.50;5049871;28;20050;-84
2021/09/05 05:04:39;;;;;;;33.60;23.90;;;;;;;13.74;82.65;101637.34;5046261;28;20481;-88
2021/09/05 05:07:10;;;;;;;31.83;23.85;;;;;;;13.64;82.82;101634.19;5051704;28;20055;-84
2021/09/05 05:09:44;;;;;;;32.47;22.77;;;;;;;13.59;82.74;101623.88;5055909;28;20115;-85
2021/09/05 05:12:19;;;;;;;30.63;21.60;;;;;;;13.44;82.65;101593.81;5055465;28;20053;-83
2021/09/05 05:14:54;;;;;;;29.63;21.13;;;;;;;13.70;82.44;101643.63;5056393;28;20037;-84
2021/09/05 05:17:29;;;;;;;30.50;21.35;;;;;;;13.66;82.55;101648.13;5058192;28;20034;-81
2021/09/05 05:20:00;;;;;;;31.58;22.08;;;;;;;13.65;82.56;101643.78;5058216;28;20083;-82
2021/09/05 05:22:36;;;;;;;29.63;22.88;;;;;;;13.65;82.74;101640.31;5057508;28;20041;-82
2021/09/05 05:25:19;;;;;;;28.85;22.05;;;;;;;13.58;82.52;101642.28;5061051;28;20041;-87
2021/09/05 05:28:01;;;;;;;31.70;22.27;;;;;;;13.51;82.95;101651.28;5076376;28;20104;-87
2021/09/05 05:30:32;;;;;;;31.35;20.90;;;;;;;13.50;82.76;101647.81;5068366;28;20067;-84
2021/09/05 05:33:20;;;;;;;29.20;20.67;;;;;;;13.43;83.00;101644.53;5065634;28;20496;-86
2021/09/05 05:35:53;;;;;;;30.02;19.67;;;;;;;13.38;82.79;101646.47;5039746;28;20045;-85
2021/09/05 05:38:27;;;;;;;31.30;22.95;;;;;;;13.41;82.67;101648.97;5039303;28;20130;-86
2021/09/05 05:41:01;;;;;;;27.50;19.55;;;;;;;13.56;82.66;101667.72;5060757;28;20052;-85
2021/09/05 05:43:34;;;;;;;27.23;18.88;;;;;;;13.41;82.57;101650.75;5055300;28;20057;-84
2021/09/05 05:46:08;;;;;;;33.97;21.63;;;;;;;13.21;82.72;101620.81;5053925;28;20048;-85
2021/09/05 05:48:51;;;;;;;32.03;20.60;;;;;;;13.39;82.24;101640.34;5053700;28;20053;-85
2021/09/05 05:51:22;;;;;;;30.90;21.50;;;;;;;13.50;82.46;101658.31;5054484;28;20181;-85
2021/09/05 05:53:55;;;;;;;27.30;20.02;;;;;;;13.64;82.25;101673.56;5051633;28;20102;-86
2021/09/05 05:56:31;;;;;;;30.17;21.10;;;;;;;13.67;82.07;101676.09;5056288;28;20080;-85
2021/09/05 05:59:03;;;;;;;28.83;19.70;;;;;;;13.76;81.82;101691.47;5054714;28;20051;-84
2021/09/05 06:01:33;;;;;;;25.35;18.88;;;;;;;13.84;81.44;101685.97;5056744;28;20485;-84
2021/09/05 06:04:06;;;;;;;22.55;17.88;;;;;;;13.75;81.05;101662.69;5061478;28;20100;-84
2021/09/05 06:06:39;;;;;;;27.40;19.35;;;;;;;13.70;80.98;101648.88;5065009;28;20049;-85
2021/09/05 06:09:09;;;;;;;24.83;18.98;;;;;;;13.75;81.21;101676.66;5055580;28;20049;-86
2021/09/05 06:11:39;;;;;;;28.38;19.27;;;;;;;13.87;81.04;101682.38;5056200;28;20370;-84
2021/09/05 06:14:15;;;;;;;25.77;19.77;;;;;;;14.11;80.54;101704.25;5079183;28;20033;-83
2021/09/05 06:16:45;;;;;;;25.90;19.42;;;;;;;14.19;80.44;101711.84;5076668;28;20037;-85
2021/09/05 06:19:16;;;;;;;24.35;18.23;;;;;;;14.21;80.34;101687.25;5049812;28;20121;-84
2021/09/05 06:21:50;;;;;;;27.48;18.42;;;;;;;14.13;79.97;101670.91;5045890;28;20128;-85
2021/09/05 06:24:34;;;;;;;21.95;16.60;;;;;;;14.47;79.55;101703.78;5040397;28;20049;-86
2021/09/05 06:27:10;;;;;;;25.83;18.33;;;;;;;14.56;79.21;101711.31;5038164;28;20049;-84
2021/09/05 06:29:41;;;;;;;23.15;17.98;;;;;;;14.69;79.16;101716.13;5037841;28;20053;-82
2021/09/05 06:32:16;;;;;;;21.98;16.25;;;;;;;14.54;78.49;101672.88;5043490;28;20076;-85
2021/09/05 06:34:47;;;;;;;26.67;19.70;;;;;;;14.75;78.33;101699.25;5057080;28;20055;-85
2021/09/05 06:37:17;;;;;;;28.13;18.50;;;;;;;14.85;78.33;101713.72;5054958;28;20048;-85
2021/09/05 06:39:48;;;;;;;23.15;18.40;;;;;;;14.57;78.72;101681.50;5055701;28;20045;-85
2021/09/05 06:42:18;;;;;;;24.15;18.73;;;;;;;14.71;78.94;101698.53;5056649;28;20049;-85
2021/09/05 06:44:56;;;;;;;28.00;18.75;;;;;;;14.65;78.23;101668.06;5057018;28;20053;-86
2021/09/05 06:47:33;;;;;;;23.17;17.48;;;;;;;15.08;78.34;101719.84;5057372;28;20045;-86
2021/09/05 06:50:04;;;;;;;26.42;19.17;;;;;;;15.13;78.22;101721.34;5057921;28;20115;-85
2021/09/05 06:52:40;;;;;;;33.13;20.25;;;;;;;15.00;78.04;101696.47;5058095;28;20049;-86
2021/09/05 06:55:11;;;;;;;26.63;20.42;;;;;;;15.00;78.24;101704.38;5057787;28;20154;-86
2021/09/05 06:57:42;;;;;;;28.15;21.02;;;;;;;15.26;77.97;101726.09;5056597;28;20136;-84
2021/09/05 07:00:19;;;;;;;23.20;18.25;;;;;;;15.22;78.31;101725.38;5058328;28;20349;-86
2021/09/05 07:02:49;;;;;;;26.38;20.95;;;;;;;15.21;78.51;101728.94;5057412;28;20056;-87
2021/09/05 07:05:18;;;;;;;30.30;20.63;;;;;;;15.20;78.52;101735.13;5076254;28;20041;-87
2021/09/05 07:07:48;;;;;;;29.00;21.45;;;;;;;14.98;78.68;101680.78;5044261;28;20045;-86
2021/09/05 07:10:19;;;;;;;32.78;22.95;;;;;;;15.09;78.56;101692.59;5059251;28;20428;-87
2021/09/05 07:12:50;;;;;;;33.90;22.67;;;;;;;15.13;78.34;101686.31;5058772;28;20476;-87
2021/09/05 07:15:27;;;;;;;35.92;23.55;;;;;;;15.50;77.77;101714.56;5058293;28;20044;-88
2021/09/05 07:17:58;;;;;;;38.08;24.65;;;;;;;15.36;78.38;101715.13;5056978;28;20443;-87
2021/09/05 07:20:36;;;;;;;35.28;25.13;;;;;;;15.44;78.56;101742.91;5060206;28;20049;-84
2021/09/05 07:23:13;;;;;;;38.92;25.98;;;;;;;14.96;79.16;101679.97;5062739;28;20045;-85
2021/09/05 07:25:56;;;;;;;35.35;25.02;;;;;;;15.33;79.16;101738.09;5058560;28;20066;-86
2021/09/05 07:28:36;;;;;;;43.40;25.45;;;;;;;15.38;79.23;101746.66;5055359;28;20041;-86
2021/09/05 07:31:06;;;;;;;35.78;24.88;;;;;;;14.98;79.19;101687.81;5051039;28;20132;-85
2021/09/05 07:33:38;;;;;;;36.80;26.02;;;;;;;15.47;78.88;101755.94;5065928;28;20121;-86
2021/09/05 07:36:13;;;;;;;42.22;27.50;;;;;;;15.21;79.17;101724.53;5042845;28;20052;-85
2021/09/05 07:38:42;;;;;;;37.92;26.15;;;;;;;15.14;79.55;101725.69;5056315;28;20045;-86
2021/09/05 07:41:15;;;;;;;39.83;26.60;;;;;;;15.43;79.11;101749.09;5055822;28;20055;-86
2021/09/05 07:43:42;;;;;;;40.83;26.52;;;;;;;15.56;79.10;101773.97;5060079;28;20094;-86
2021/09/05 07:46:11;;;;;;;39.28;27.35;;;;;;;15.71;78.61;101774.25;5058763;28;20045;-86
2021/09/05 07:48:37;;;;;;;40.00;26.98;;;;;;;15.92;77.95;101764.63;5057158;28;20159;-87
2021/09/05 07:51:03;;;;;;;41.67;27.38;;;;;;;16.02;77.55;101771.16;5057169;28;20053;-86
2021/09/05 07:53:30;;;;;;;37.72;28.15;;;;;;;15.87;77.25;101727.94;5055260;28;20048;-86
2021/09/05 07:55:56;;;;;;;43.13;28.45;;;;;;;16.08;77.39;101765.63;5058681;28;20041;-86
2021/09/05 07:58:24;;;;;;;42.80;27.48;;;;;;;15.93;77.00;101734.69;5056022;28;20040;-85
2021/09/05 08:00:51;;;;;;;37.08;26.15;;;;;;;16.14;77.23;101773.25;5056954;28;20409;-85
2021/09/05 08:03:17;;;;;;;40.83;28.48;;;;;;;15.73;77.50;101723.22;5056587;28;20063;-85
2021/09/05 08:05:42;;;;;;;38.88;26.90;;;;;;;15.73;78.16;101757.44;5055608;28;20493;-86
2021/09/05 08:08:10;;;;;;;42.88;28.90;;;;;;;15.60;78.39;101749.25;5056330;28;20045;-86
2021/09/05 08:10:38;;;;;;;40.17;27.95;;;;;;;15.87;77.74;101753.41;5055982;28;20048;-85
2021/09/05 08:13:09;;;;;;;39.33;28.48;;;;;;;16.15;77.62;101787.31;5055454;28;20045;-86
2021/09/05 08:15:44;;;;;;;48.20;29.20;;;;;;;16.07;76.63;101753.38;5062612;28;20488;-86
2021/09/05 08:18:19;;;;;;;40.83;28.33;;;;;;;16.34;76.65;101792.59;5069809;28;20088;-86
2021/09/05 08:20:49;;;;;;;43.70;28.73;;;;;;;16.33;76.56;101794.38;5063422;28;20044;-85
2021/09/05 08:23:32;;;;;;;40.63;27.80;;;;;;;16.19;76.64;101778.31;5066661;28;20060;-84
2021/09/05 08:26:15;;;;;;;43.40;29.60;;;;;;;16.07;77.45;101779.72;5058663;28;20056;-87
2021/09/05 08:29:02;;;;;;;40.67;28.42;;;;;;;16.32;76.75;101792.66;5050592;28;20302;-86
2021/09/05 08:31:34;;;;;;;42.05;28.67;;;;;;;16.10;76.71;101747.13;5057803;28;20045;-89
2021/09/05 08:34:10;;;;;;;44.15;29.33;;;;;;;16.20;76.47;101764.25;5066074;28;20060;-87
2021/09/05 08:36:47;;;;;;;45.45;30.80;;;;;;;16.34;76.78;101792.59;5077249;28;20092;-85
2021/09/05 08:39:21;;;;;;;39.67;27.85;;;;;;;15.99;76.67;101737.94;5078021;28;20055;-85
2021/09/05 08:41:50;;;;;;;43.17;29.35;;;;;;;16.53;76.14;101792.63;5073610;28;20093;-85
2021/09/05 08:44:16;;;;;;;41.60;30.05;;;;;;;16.61;76.09;101792.25;5072096;28;20049;-85
2021/09/05 08:46:43;;;;;;;40.63;29.02;;;;;;;16.70;75.61;101797.13;5068195;28;20444;-87
2021/09/05 08:49:09;;;;;;;40.65;29.83;;;;;;;16.74;75.24;101790.75;5057812;28;20170;-86
2021/09/05 08:51:35;;;;;;;37.65;28.40;;;;;;;16.84;75.31;101796.44;5056359;28;20040;-86
2021/09/05 08:54:01;;;;;;;40.38;29.52;;;;;;;17.00;74.52;101791.34;5055421;28;20449;-87
2021/09/05 08:56:27;;;;;;;42.83;28.65;;;;;;;17.08;74.42;101806.81;5056385;28;20436;-87
2021/09/05 08:58:53;;;;;;;43.97;29.40;;;;;;;16.88;74.40;101782.22;5054979;28;20504;-87
2021/09/05 09:01:27;;;;;;;45.47;31.15;;;;;;;16.99;74.03;101772.94;5055688;28;20509;-87
2021/09/05 09:04:09;;;;;;;43.50;28.77;;;;;;;17.13;74.07;101799.53;5065998;28;20102;-87
2021/09/05 09:06:38;;;;;;;48.90;30.88;;;;;;;17.16;74.13;101803.78;5059316;28;20425;-87
2021/09/05 09:09:05;;;;;;;48.85;32.97;;;;;;;17.04;74.44;101805.22;5054120;28;20537;-86
2021/09/05 09:11:52;;;;;;;47.05;32.88;;;;;;;17.16;74.19;101807.28;5053551;28;20045;-86
2021/09/05 09:14:20;;;;;;;46.55;30.15;;;;;;;17.03;74.54;101787.69;5053907;28;20056;-86
2021/09/05 09:16:46;;;;;;;43.13;29.10;;;;;;;16.76;73.56;101694.00;5046466;28;20048;-85
2021/09/05 09:19:26;;;;;;;42.25;29.70;;;;;;;17.48;72.90;101790.78;5055246;28;20122;-85
2021/09/05 09:21:53;;;;;;;43.63;31.52;;;;;;;17.51;73.19;101807.34;5053324;28;20091;-87
2021/09/05 09:24:22;;;;;;;47.15;31.70;;;;;;;17.19;73.29;101748.25;5053995;28;20044;-86
2021/09/05 09:27:03;;;;;;;44.78;32.60;;;;;;;17.29;73.55;101778.53;5055223;28;20048;-87
2021/09/05 09:29:33;;;;;;;45.53;33.03;;;;;;;17.43;73.37;101788.38;5054102;28;20116;-80
2021/09/05 09:32:26;;;;;;;49.85;34.33;;;;;;;17.45;72.61;101773.34;5055685;28;20041;-86
2021/09/05 09:34:53;;;;;;;40.58;30.35;;;;;;;17.49;72.75;101781.94;5034626;28;20049;-86
2021/09/05 09:37:22;;;;;;;42.65;31.27;;;;;;;17.60;73.10;101800.75;5043508;28;20052;-86
2021/09/05 09:39:52;;;;;;;45.55;31.10;;;;;;;17.53;72.72;101768.53;5054081;28;20072;-86
2021/09/05 09:42:34;;;;;;;46.58;31.95;;;;;;;17.80;72.37;101791.81;5053678;28;20049;-88
2021/09/05 09:45:10;;;;;;;46.70;32.83;;;;;;;17.68;72.51;101784.53;5053690;28;20041;-87
2021/09/05 09:47:41;;;;;;;43.97;32.15;;;;;;;18.06;71.90;101794.94;5053140;28;20044;-87
2021/09/05 09:50:09;;;;;;;48.67;33.92;;;;;;;18.01;71.82;101797.81;5053933;28;20442;-86
2021/09/05 09:52:37;;;;;;;41.72;31.25;;;;;;;18.02;71.95;101790.75;5052858;28;20045;-86
2021/09/05 09:55:04;;;;;;;42.20;31.42;;;;;;;18.34;71.02;101801.41;5056649;28;20049;-89
2021/09/05 09:57:30;;;;;;;42.97;32.10;;;;;;;18.22;70.82;101779.97;5058002;28;20486;-88
2021/09/05 09:59:57;;;;;;;43.08;31.20;;;;;;;18.48;70.29;101800.66;5058496;28;20151;-81
2021/09/05 10:02:26;;;;;;;43.97;32.50;;;;;;;18.36;70.33;101803.03;5057788;28;20040;-86
2021/09/05 10:04:54;;;;;;;46.85;32.65;;;;;;;18.39;70.25;101791.44;5057056;28;20052;-86
2021/09/05 10:07:21;;;;;;;44.58;32.40;;;;;;;18.47;70.13;101798.94;5057642;28;20049;-86
2021/09/05 10:09:50;;;;;;;43.30;31.35;;;;;;;18.62;70.09;101808.69;5056853;28;20053;-86
2021/09/05 10:12:18;;;;;;;48.38;33.28;;;;;;;18.66;69.77;101815.53;5059182;28;20052;-86
2021/09/05 10:14:53;;;;;;;47.83;35.20;;;;;;;18.55;69.84;101815.25;5058865;28;20084;-87
2021/09/05 10:17:21;;;;;;;46.92;34.53;;;;;;;18.50;70.04;101789.06;5057490;28;20040;-86
2021/09/05 10:19:51;;;;;;;45.95;34.83;;;;;;;18.45;69.90;101772.59;5058778;28;20048;-86
2021/09/05 10:22:19;;;;;;;46.05;34.10;;;;;;;18.82;69.29;101807.59;5058187;28;20045;-86
2021/09/05 10:24:51;;;;;;;45.13;33.50;;;;;;;19.02;68.75;101811.81;5056810;28;20052;-86
2021/09/05 10:27:34;;;;;;;45.95;32.97;;;;;;;19.27;67.87;101817.50;5040363;28;20049;-86
2021/09/05 10:30:06;;;;;;;41.97;31.92;;;;;;;19.40;67.44;101817.66;5057828;28;20049;-86
2021/09/05 10:32:46;;;;;;;42.03;32.08;;;;;;;19.22;67.56;101808.97;5058798;28;20041;-86
2021/09/05 10:35:45;;;;;;;45.15;33.65;;;;;;;19.08;67.73;101794.75;5076145;28;20049;-85
2021/09/05 10:38:14;;;;;;;43.75;32.60;;;;;;;19.11;68.35;101807.78;5061085;28;20045;-89
2021/09/05 10:40:42;;;;;;;48.25;34.60;;;;;;;19.09;68.21;101785.00;5064451;28;20044;-89
2021/09/05 10:43:08;;;;;;;46.80;33.97;;;;;;;19.29;67.86;101808.53;5082004;28;20070;-90
2021/09/05 10:45:37;;;;;;;45.88;33.33;;;;;;;19.36;67.63;101804.59;5081338;28;20045;-91
2021/09/05 10:48:28;;;;;;;47.42;32.97;;;;;;;19.42;67.46;101802.53;5081023;28;20060;-89
2021/09/05 10:51:04;;;;;;;48.25;34.42;;;;;;;19.31;67.53;101796.06;5079444;28;20048;-89
2021/09/05 10:56:59;;;;;;;50.30;33.33;;;;;;;19.74;66.55;101787.41;5560945;23;20090;31
2021/09/05 10:59:31;;;;;;;47.53;34.75;;;;;;;19.89;66.16;101788.28;4942177;29;20060;-86
2021/09/05 11:02:00;;;;;;;45.38;34.15;;;;;;;19.93;65.41;101743.91;4943081;29;20103;-88
2021/09/05 11:04:38;;;;;;;43.10;32.40;;;;;;;20.40;64.51;101763.97;4941193;29;20051;-90
2021/09/05 11:07:09;;;;;;;43.10;33.03;;;;;;;20.60;64.21;101781.28;4922690;29;20421;-88
2021/09/05 11:09:34;;;;;;;45.70;34.22;;;;;;;20.71;63.41;101785.06;4920796;29;20453;-85
2021/09/05 11:12:08;;;;;;;43.90;32.70;;;;;;;21.11;62.38;101777.19;4921123;29;20096;-87
2021/09/05 11:14:37;;;;;;;47.63;37.13;;;;;;;21.22;62.22;101782.63;4954803;29;20056;-89
2021/09/05 11:17:26;;;;;;;47.00;34.50;;;;;;;21.19;61.61;101781.97;4931657;29;20414;-87
2021/09/05 11:20:03;;;;;;;45.58;34.75;;;;;;;21.04;62.58;101784.69;4923642;29;20048;-85
2021/09/05 11:22:33;;;;;;;45.42;33.95;;;;;;;21.00;62.36;101787.66;4922642;29;20406;-85
2021/09/05 11:25:06;;;;;;;43.97;34.33;;;;;;;21.17;61.71;101784.75;4923076;29;20110;-89
2021/09/05 11:27:32;;;;;;;46.25;35.42;;;;;;;20.53;62.36;101723.41;4922989;29;20052;-88
2021/09/05 11:29:59;;;;;;;44.25;33.97;;;;;;;21.13;61.72;101782.41;4920247;29;20047;-88
2021/09/05 11:32:26;;;;;;;45.78;35.42;;;;;;;21.28;61.68;101790.19;4908412;29;20058;-89
2021/09/05 11:34:56;;;;;;;48.85;36.10;;;;;;;21.33;61.49;101779.28;4937538;29;20067;-89
2021/09/05 11:37:46;;;;;;;42.22;33.80;;;;;;;21.49;61.46;101789.72;4939657;29;20102;-88